createdAt,value
2022-09-16T00:00:31.690Z,51.179287
2022-09-16T00:01:31.573Z,51.179302
2022-09-16T00:02:31.635Z,51.179321
2022-09-16T00:03:31.609Z,51.179291
2022-09-16T00:04:31.568Z,51.179264
2022-09-16T00:05:31.558Z,51.179283
2022-09-16T00:06:31.581Z,51.179272
2022-09-16T00:07:31.565Z,51.179272
2022-09-16T00:08:31.571Z,51.179291
2022-09-16T00:09:32.510Z,51.179291
2022-09-16T00:10:31.631Z,51.179264
2022-09-16T00:11:31.552Z,51.179199
2022-09-16T00:12:31.519Z,51.179195
2022-09-16T00:13:31.561Z,51.179214
2022-09-16T00:14:31.491Z,51.179241
2022-09-16T00:15:31.442Z,51.179283
2022-09-16T00:16:31.511Z,51.179256
2022-09-16T00:17:31.436Z,51.179218
2022-09-16T00:18:31.480Z,51.179230
2022-09-16T00:19:31.370Z,51.179218
2022-09-16T00:20:31.374Z,51.179222
2022-09-16T00:21:31.414Z,51.179157
2022-09-16T00:22:31.336Z,51.179237
2022-09-16T00:23:31.396Z,51.179241
2022-09-16T00:24:31.339Z,51.179237
2022-09-16T00:25:31.332Z,51.179214
2022-09-16T00:26:31.335Z,51.179237
2022-09-16T00:27:31.313Z,51.179222
2022-09-16T00:28:31.311Z,51.179268
2022-09-16T00:29:31.238Z,51.179230
2022-09-16T00:30:31.310Z,51.179237
2022-09-16T00:31:31.324Z,51.179226
2022-09-16T00:32:31.231Z,51.179253
2022-09-16T00:33:31.308Z,51.179245
2022-09-16T00:34:31.214Z,51.179211
2022-09-16T00:35:31.253Z,51.179237
2022-09-16T00:36:31.192Z,51.179264
2022-09-16T00:37:31.201Z,51.179253
2022-09-16T00:38:31.214Z,51.179264
2022-09-16T00:39:31.170Z,51.179237
2022-09-16T00:40:31.252Z,51.179234
2022-09-16T00:41:31.157Z,51.179241
2022-09-16T00:42:31.153Z,51.179241
2022-09-16T00:43:31.152Z,51.179260
2022-09-16T00:44:31.130Z,51.179314
2022-09-16T00:45:31.082Z,51.179298
2022-09-16T00:46:31.130Z,51.179260
2022-09-16T00:47:31.094Z,51.179249
2022-09-16T00:48:31.112Z,51.179253
2022-09-16T00:49:31.056Z,51.179268
2022-09-16T00:50:31.068Z,51.179291
2022-09-16T00:51:31.059Z,51.179260
2022-09-16T00:52:31.007Z,51.179253
2022-09-16T00:53:31.028Z,51.179264
2022-09-16T00:54:30.971Z,51.179245
2022-09-16T00:55:31.035Z,51.179245
2022-09-16T00:56:31.001Z,51.179237
2022-09-16T00:57:30.978Z,51.179222
2022-09-16T00:58:30.994Z,51.179207
2022-09-16T00:59:30.925Z,51.179218
2022-09-16T01:00:30.985Z,51.179218
2022-09-16T01:01:30.995Z,51.179260
2022-09-16T01:02:30.881Z,51.179260
2022-09-16T01:03:30.943Z,51.179203
2022-09-16T01:04:30.859Z,51.179222
2022-09-16T01:05:30.850Z,51.179218
2022-09-16T01:06:30.830Z,51.179237
2022-09-16T01:07:30.837Z,51.179249
2022-09-16T01:08:30.869Z,51.179222
2022-09-16T01:09:30.809Z,51.179226
2022-09-16T01:10:30.838Z,51.179226
2022-09-16T01:11:30.788Z,51.179203
2022-09-16T01:12:30.779Z,51.179153
2022-09-16T01:13:30.813Z,51.179169
2022-09-16T01:14:30.758Z,51.179207
2022-09-16T01:15:30.734Z,51.179222
2022-09-16T01:16:30.757Z,51.179260
2022-09-16T01:17:30.746Z,51.179249
2022-09-16T01:18:30.808Z,51.179234
2022-09-16T01:19:30.708Z,51.179245
2022-09-16T01:20:30.691Z,51.179249
2022-09-16T01:21:30.672Z,51.179264
2022-09-16T01:22:30.651Z,51.179264
2022-09-16T01:26:15.223Z,51.179203
2022-09-16T01:27:15.235Z,51.179264
2022-09-16T01:28:15.174Z,51.179260
2022-09-16T01:29:15.135Z,51.179245
2022-09-16T01:30:15.156Z,51.179241
2022-09-16T01:31:15.128Z,51.179188
2022-09-16T01:32:15.096Z,51.179207
2022-09-16T01:33:15.096Z,51.179291
2022-09-16T01:34:15.071Z,51.179291
2022-09-16T01:35:15.078Z,51.179245
2022-09-16T01:36:15.131Z,51.179203
2022-09-16T01:37:15.027Z,51.179195
2022-09-16T01:38:15.023Z,51.179237
2022-09-16T01:39:15.030Z,51.179226
2022-09-16T01:40:15.055Z,51.179203
2022-09-16T01:41:15.030Z,51.179279
2022-09-16T01:42:14.975Z,51.179321
2022-09-16T01:43:15.030Z,51.179321
2022-09-16T01:44:14.968Z,51.179310
2022-09-16T01:45:14.980Z,51.179283
2022-09-16T01:46:14.980Z,51.179268
2022-09-16T01:47:14.990Z,51.179306
2022-09-16T01:48:14.924Z,51.179279
2022-09-16T01:49:14.918Z,51.179237
2022-09-16T01:50:14.870Z,51.179211
2022-09-16T01:51:14.895Z,51.179241
2022-09-16T01:52:14.955Z,51.179272
2022-09-16T01:53:14.850Z,51.179291
2022-09-16T01:54:14.865Z,51.179283
2022-09-16T01:55:14.840Z,51.179325
2022-09-16T01:56:14.821Z,51.179302
2022-09-16T01:57:14.819Z,51.179256
2022-09-16T01:58:14.902Z,51.179321
2022-09-16T01:59:14.801Z,51.179352
2022-09-16T02:00:14.801Z,51.179295
2022-09-16T02:01:14.949Z,51.179276
2022-09-16T02:02:14.926Z,51.179241
2022-09-16T02:03:14.831Z,51.179241
2022-09-16T02:04:14.753Z,51.179230
2022-09-16T02:05:14.740Z,51.179234
2022-09-16T02:06:14.721Z,51.179253
2022-09-16T02:07:14.734Z,51.179237
2022-09-16T02:08:14.748Z,51.179276
2022-09-16T02:09:14.815Z,51.179310
2022-09-16T02:10:14.723Z,51.179276
2022-09-16T02:11:14.707Z,51.179264
2022-09-16T02:12:14.638Z,51.179272
2022-09-16T02:13:14.611Z,51.179268
2022-09-16T02:14:14.670Z,51.179264
2022-09-16T02:15:14.605Z,51.179260
2022-09-16T02:16:14.726Z,51.179260
2022-09-16T02:17:14.589Z,51.179260
2022-09-16T02:18:14.587Z,51.179256
2022-09-16T02:19:14.553Z,51.179222
2022-09-16T02:20:14.835Z,51.179199
2022-09-16T02:21:14.558Z,51.179230
2022-09-16T02:22:14.609Z,51.179253
2022-09-16T02:23:14.540Z,51.179295
2022-09-16T02:24:14.516Z,51.179268
2022-09-16T02:25:14.599Z,51.179276
2022-09-16T02:26:14.480Z,51.179287
2022-09-16T02:27:14.496Z,51.179272
2022-09-16T02:28:14.464Z,51.179310
2022-09-16T02:29:14.458Z,51.179298
2022-09-16T02:30:14.437Z,51.179264
2022-09-16T02:31:14.528Z,51.179237
2022-09-16T02:32:14.442Z,51.179203
2022-09-16T02:33:14.440Z,51.179214
2022-09-16T02:34:14.488Z,51.179222
2022-09-16T02:35:14.402Z,51.179241
2022-09-16T02:36:14.431Z,51.179256
2022-09-16T02:37:14.371Z,51.179260
2022-09-16T02:38:14.358Z,51.179276
2022-09-16T02:39:14.405Z,51.179226
2022-09-16T02:40:14.423Z,51.179146
2022-09-16T02:41:14.337Z,51.179157
2022-09-16T02:42:14.386Z,51.179192
2022-09-16T02:43:14.322Z,51.179214
2022-09-16T02:44:14.295Z,51.179214
2022-09-16T02:45:14.355Z,51.179218
2022-09-16T02:46:14.289Z,51.179260
2022-09-16T02:47:14.290Z,51.179245
2022-09-16T02:48:14.267Z,51.179226
2022-09-16T02:49:14.231Z,51.179214
2022-09-16T02:50:14.222Z,51.179211
2022-09-16T02:51:14.226Z,51.179199
2022-09-16T02:52:14.280Z,51.179237
2022-09-16T02:53:14.268Z,51.179207
2022-09-16T02:54:14.218Z,51.179214
2022-09-16T02:55:14.194Z,51.179226
2022-09-16T02:56:14.212Z,51.179245
2022-09-16T02:57:14.179Z,51.179214
2022-09-16T02:58:14.175Z,51.179230
2022-09-16T02:59:14.118Z,51.179226
2022-09-16T03:00:14.125Z,51.179237
2022-09-16T03:01:14.128Z,51.179226
2022-09-16T03:02:14.096Z,51.179245
2022-09-16T03:03:14.239Z,51.179260
2022-09-16T03:04:14.067Z,51.179272
2022-09-16T03:05:14.060Z,51.179230
2022-09-16T03:06:14.083Z,51.179237
2022-09-16T03:07:14.048Z,51.179218
2022-09-16T03:08:14.068Z,51.179184
2022-09-16T03:09:14.066Z,51.179165
2022-09-16T03:10:14.011Z,51.179176
2022-09-16T03:11:14.001Z,51.179176
2022-09-16T03:12:13.967Z,51.179214
2022-09-16T03:13:13.976Z,51.179260
2022-09-16T03:14:14.022Z,51.179245
2022-09-16T03:15:14.996Z,51.179268
2022-09-16T03:16:13.998Z,51.179272
2022-09-16T03:17:13.921Z,51.179226
2022-09-16T03:18:13.919Z,51.179203
2022-09-16T03:19:13.884Z,51.179188
2022-09-16T03:20:13.938Z,51.179234
2022-09-16T03:21:13.869Z,51.179279
2022-09-16T03:22:13.950Z,51.179260
2022-09-16T03:23:13.852Z,51.179226
2022-09-16T03:24:13.886Z,51.179203
2022-09-16T03:25:13.896Z,51.179199
2022-09-16T03:26:13.837Z,51.179207
2022-09-16T03:27:13.818Z,51.179234
2022-09-16T03:28:13.829Z,51.179226
2022-09-16T03:29:13.798Z,51.179207
2022-09-16T03:30:13.793Z,51.179207
2022-09-16T03:31:13.930Z,51.179218
2022-09-16T03:32:13.766Z,51.179234
2022-09-16T03:33:13.737Z,51.179230
2022-09-16T03:34:13.746Z,51.179203
2022-09-16T03:35:13.730Z,51.179192
2022-09-16T03:36:13.763Z,51.179180
2022-09-16T03:37:13.690Z,51.179237
2022-09-16T03:38:13.723Z,51.179264
2022-09-16T03:39:13.684Z,51.179234
2022-09-16T03:40:13.732Z,51.179245
2022-09-16T03:41:13.646Z,51.179222
2022-09-16T03:42:13.675Z,51.179188
2022-09-16T03:43:13.727Z,51.179180
2022-09-16T03:44:13.604Z,51.179180
2022-09-16T03:45:13.628Z,51.179203
2022-09-16T03:46:13.625Z,51.179230
2022-09-16T03:47:13.639Z,51.179260
2022-09-16T03:48:13.583Z,51.179249
2022-09-16T03:49:13.571Z,51.179306
2022-09-16T03:50:13.566Z,51.179306
2022-09-16T03:51:13.529Z,51.179306
2022-09-16T03:52:13.543Z,51.179291
2022-09-16T03:53:13.570Z,51.179276
2022-09-16T03:54:13.515Z,51.179214
2022-09-16T03:55:13.483Z,51.179230
2022-09-16T03:56:13.522Z,51.179241
2022-09-16T03:57:13.504Z,51.179241
2022-09-16T03:58:13.533Z,51.179218
2022-09-16T03:59:13.438Z,51.179234
2022-09-16T04:00:13.460Z,51.179234
2022-09-16T04:01:13.487Z,51.179256
2022-09-16T04:02:13.459Z,51.179241
2022-09-16T04:03:13.400Z,51.179199
2022-09-16T04:04:14.457Z,51.179207
2022-09-16T04:05:13.426Z,51.179245
2022-09-16T04:06:13.401Z,51.179249
2022-09-16T04:07:13.351Z,51.179245
2022-09-16T04:08:13.423Z,51.179260
2022-09-16T04:09:13.386Z,51.179245
2022-09-16T04:10:13.343Z,51.179253
2022-09-16T04:11:13.316Z,51.179272
2022-09-16T04:12:13.371Z,51.179260
2022-09-16T04:13:16.152Z,51.179272
2022-09-16T04:14:13.361Z,51.179276
2022-09-16T04:15:13.322Z,51.179264
2022-09-16T04:16:13.334Z,51.179264
2022-09-16T04:17:13.282Z,51.179264
2022-09-16T04:18:13.242Z,51.179283
2022-09-16T04:19:13.292Z,51.179276
2022-09-16T04:20:13.278Z,51.179287
2022-09-16T04:21:13.238Z,51.179264
2022-09-16T04:22:13.229Z,51.179298
2022-09-16T04:23:13.186Z,51.179306
2022-09-16T04:24:13.658Z,51.179314
2022-09-16T04:25:14.240Z,51.179317
2022-09-16T04:26:13.167Z,51.179314
2022-09-16T04:27:13.149Z,51.179306
2022-09-16T04:28:13.162Z,51.179291
2022-09-16T04:29:13.154Z,51.179295
2022-09-16T04:30:13.109Z,51.179283
2022-09-16T04:31:13.260Z,51.179276
2022-09-16T04:32:13.085Z,51.179276
2022-09-16T04:33:13.078Z,51.179253
2022-09-16T04:34:13.158Z,51.179260
2022-09-16T04:35:13.110Z,51.179256
2022-09-16T04:36:13.228Z,51.179363
2022-09-16T04:37:13.046Z,51.179348
2022-09-16T04:38:13.042Z,51.179371
2022-09-16T04:39:13.005Z,51.179352
2022-09-16T04:40:13.039Z,51.179264
2022-09-16T04:41:13.008Z,51.179317
2022-09-16T04:42:13.014Z,51.179398
2022-09-16T04:43:12.970Z,51.179379
2022-09-16T04:44:12.950Z,51.179310
2022-09-16T04:45:13.016Z,51.179287
2022-09-16T04:46:12.996Z,51.179264
2022-09-16T04:47:12.967Z,51.179272
2022-09-16T04:48:12.898Z,51.179298
2022-09-16T04:49:12.883Z,51.179253
2022-09-16T04:50:12.923Z,51.179245
2022-09-16T04:51:12.930Z,51.179245
2022-09-16T04:52:12.856Z,51.179253
2022-09-16T04:53:12.919Z,51.179249
2022-09-16T04:54:12.866Z,51.179249
2022-09-16T04:55:12.837Z,51.179214
2022-09-16T04:56:12.842Z,51.179237
2022-09-16T04:57:12.815Z,51.179234
2022-09-16T04:58:12.858Z,51.179260
2022-09-16T04:59:12.820Z,51.179222
2022-09-16T05:00:12.869Z,51.179207
2022-09-16T05:01:12.881Z,51.179226
2022-09-16T05:02:12.771Z,51.179237
2022-09-16T05:03:12.827Z,51.179245
2022-09-16T05:04:12.826Z,51.179199
2022-09-16T05:05:12.884Z,51.179230
2022-09-16T05:06:15.004Z,51.179207
2022-09-16T05:07:12.699Z,51.179218
2022-09-16T05:08:12.686Z,51.179211
2022-09-16T05:09:12.734Z,51.179237
2022-09-16T05:10:12.926Z,51.179241
2022-09-16T05:11:12.712Z,51.179264
2022-09-16T05:12:12.645Z,51.179264
2022-09-16T05:13:12.663Z,51.179276
2022-09-16T05:14:12.729Z,51.179192
2022-09-16T05:15:12.719Z,51.179207
2022-09-16T05:16:12.679Z,51.179241
2022-09-16T05:17:27.649Z,51.179218
2022-09-16T05:18:14.672Z,51.179176
2022-09-16T05:19:12.567Z,51.179150
2022-09-16T05:20:12.667Z,51.179188
2022-09-16T05:21:12.547Z,51.179234
2022-09-16T05:22:12.551Z,51.179249
2022-09-16T05:23:12.640Z,51.179241
2022-09-16T05:24:12.611Z,51.179237
2022-09-16T05:25:12.435Z,51.179199
2022-09-16T05:26:12.580Z,51.179230
2022-09-16T05:27:12.493Z,51.179249
2022-09-16T05:28:12.579Z,51.179245
2022-09-16T05:29:12.552Z,51.179249
2022-09-16T05:30:12.470Z,51.179279
2022-09-16T05:31:12.551Z,51.179272
2022-09-16T05:32:12.483Z,51.179283
2022-09-16T05:33:12.478Z,51.179226
2022-09-16T05:34:12.416Z,51.179226
2022-09-16T05:35:12.390Z,51.179241
2022-09-16T05:36:13.515Z,51.179279
2022-09-16T05:37:12.480Z,51.179264
2022-09-16T05:38:12.367Z,51.179264
2022-09-16T05:39:22.695Z,51.179268
2022-09-16T05:40:14.433Z,51.179253
2022-09-16T05:41:12.402Z,51.179253
2022-09-16T05:42:12.378Z,51.179264
2022-09-16T05:43:12.313Z,51.179264
2022-09-16T05:44:12.370Z,51.179272
2022-09-16T05:45:12.368Z,51.179329
2022-09-16T05:46:12.431Z,51.179321
2022-09-16T05:47:12.379Z,51.179302
2022-09-16T05:48:12.227Z,51.179287
2022-09-16T05:49:12.289Z,51.179302
2022-09-16T05:50:12.310Z,51.179333
2022-09-16T05:51:12.260Z,51.179306
2022-09-16T05:52:12.198Z,51.179264
2022-09-16T05:53:12.237Z,51.179279
2022-09-16T05:54:12.195Z,51.179272
2022-09-16T05:55:12.255Z,51.179253
2022-09-16T05:56:12.145Z,51.179268
2022-09-16T05:57:12.450Z,51.179295
2022-09-16T05:58:12.252Z,51.179302
2022-09-16T05:59:12.117Z,51.179295
2022-09-16T06:00:12.126Z,51.179314
2022-09-16T06:01:12.221Z,51.179329
2022-09-16T06:02:12.173Z,51.179306
2022-09-16T06:03:12.093Z,51.179287
2022-09-16T06:04:12.201Z,51.179295
2022-09-16T06:05:12.181Z,51.179329
2022-09-16T06:06:12.415Z,51.179344
2022-09-16T06:07:12.096Z,51.179276
2022-09-16T06:08:12.103Z,51.179192
2022-09-16T06:09:12.172Z,51.179268
2022-09-16T06:10:12.011Z,51.179352
2022-09-16T06:11:12.004Z,51.179348
2022-09-16T06:12:11.982Z,51.179279
2022-09-16T06:13:11.970Z,51.179291
2022-09-16T06:14:11.966Z,51.179249
2022-09-16T06:15:11.983Z,51.179253
2022-09-16T06:16:11.938Z,51.179237
2022-09-16T06:17:11.926Z,51.179256
2022-09-16T06:18:11.913Z,51.179264
2022-09-16T06:19:11.913Z,51.179295
2022-09-16T06:20:11.970Z,51.179249
2022-09-16T06:21:11.941Z,51.179230
2022-09-16T06:22:11.854Z,51.179295
2022-09-16T06:23:11.860Z,51.179325
2022-09-16T06:24:11.884Z,51.179329
2022-09-16T06:25:11.903Z,51.179337
2022-09-16T06:26:11.952Z,51.179344
2022-09-16T06:27:11.821Z,51.179317
2022-09-16T06:28:11.894Z,51.179291
2022-09-16T06:29:11.890Z,51.179298
2022-09-16T06:30:11.872Z,51.179291
2022-09-16T06:31:11.944Z,51.179276
2022-09-16T06:32:11.784Z,51.179279
2022-09-16T06:33:11.782Z,51.179283
2022-09-16T06:34:11.829Z,51.179287
2022-09-16T06:35:11.720Z,51.179279
2022-09-16T06:36:11.727Z,51.179222
2022-09-16T06:37:11.816Z,51.179211
2022-09-16T06:38:11.682Z,51.179195
2022-09-16T06:39:11.685Z,51.179237
2022-09-16T06:40:11.755Z,51.179279
2022-09-16T06:41:11.728Z,51.179283
2022-09-16T06:42:11.814Z,51.179245
2022-09-16T06:43:11.699Z,51.179241
2022-09-16T06:44:11.719Z,51.179264
2022-09-16T06:45:11.595Z,51.179226
2022-09-16T06:46:11.691Z,51.179184
2022-09-16T06:47:11.696Z,51.179211
2022-09-16T06:48:11.740Z,51.179253
2022-09-16T06:49:11.589Z,51.179241
2022-09-16T06:50:11.627Z,51.179234
2022-09-16T06:51:11.621Z,51.179245
2022-09-16T06:52:11.593Z,51.179237
2022-09-16T06:53:11.769Z,51.179291
2022-09-16T06:54:11.899Z,51.179306
2022-09-16T06:55:11.493Z,51.179241
2022-09-16T06:56:11.494Z,51.179276
2022-09-16T06:57:12.533Z,51.179295
2022-09-16T06:58:12.536Z,51.179245
2022-09-16T06:59:11.521Z,51.179234
2022-09-16T07:00:11.431Z,51.179226
2022-09-16T07:01:11.579Z,51.179253
2022-09-16T07:02:11.613Z,51.179264
2022-09-16T07:03:11.461Z,51.179230
2022-09-16T07:04:11.463Z,51.179226
2022-09-16T07:05:11.413Z,51.179222
2022-09-16T07:06:11.471Z,51.179264
2022-09-16T07:07:11.469Z,51.179256
2022-09-16T07:08:11.452Z,51.179249
2022-09-16T07:09:11.565Z,51.179260
2022-09-16T07:10:11.428Z,51.179276
2022-09-16T07:11:11.414Z,51.179264
2022-09-16T07:12:12.087Z,51.179306
2022-09-16T07:13:11.303Z,51.179287
2022-09-16T07:14:11.353Z,51.179260
2022-09-16T07:15:11.726Z,51.179276
2022-09-16T07:16:14.020Z,51.179272
2022-09-16T07:17:12.386Z,51.179279
2022-09-16T07:18:11.237Z,51.179287
2022-09-16T07:19:11.307Z,51.179249
2022-09-16T07:20:11.377Z,51.179241
2022-09-16T07:21:11.317Z,51.179237
2022-09-16T07:22:11.211Z,51.179226
2022-09-16T07:23:11.241Z,51.179241
2022-09-16T07:24:11.251Z,51.179245
2022-09-16T07:25:11.223Z,51.179260
2022-09-16T07:26:11.300Z,51.179241
2022-09-16T07:27:15.028Z,51.179245
2022-09-16T07:28:11.239Z,51.179237
2022-09-16T07:29:11.139Z,51.179218
2022-09-16T07:30:11.121Z,51.179199
2022-09-16T07:31:11.361Z,51.179226
2022-09-16T07:32:11.085Z,51.179222
2022-09-16T07:33:11.092Z,51.179234
2022-09-16T07:34:11.189Z,51.179234
2022-09-16T07:35:11.109Z,51.179234
2022-09-16T07:36:11.130Z,51.179245
2022-09-16T07:37:11.131Z,51.179256
2022-09-16T07:38:11.102Z,51.179230
2022-09-16T07:39:11.008Z,51.179241
2022-09-16T07:40:11.166Z,51.179241
2022-09-16T07:41:11.112Z,51.179245
2022-09-16T07:42:11.062Z,51.179272
2022-09-16T07:43:10.966Z,51.179249
2022-09-16T07:44:11.030Z,51.179272
2022-09-16T07:45:11.044Z,51.179287
2022-09-16T07:46:11.189Z,51.179279
2022-09-16T07:47:11.040Z,51.179287
2022-09-16T07:48:11.319Z,51.179279
2022-09-16T07:49:11.006Z,51.179256
2022-09-16T07:50:10.974Z,51.179241
2022-09-16T07:51:10.857Z,51.179237
2022-09-16T07:52:11.060Z,51.179234
2022-09-16T07:53:10.893Z,51.179241
2022-09-16T07:54:10.925Z,51.179283
2022-09-16T07:55:10.922Z,51.179279
2022-09-16T07:56:10.816Z,51.179276
2022-09-16T07:57:10.920Z,51.179264
2022-09-16T07:58:10.825Z,51.179256
2022-09-16T07:59:14.240Z,51.179237
2022-09-16T08:00:11.889Z,51.179218
2022-09-16T08:01:10.961Z,51.179237
2022-09-16T08:02:10.921Z,51.179241
2022-09-16T08:03:10.832Z,51.179256
2022-09-16T08:04:10.811Z,51.179264
2022-09-16T08:05:10.848Z,51.179260
2022-09-16T08:06:10.785Z,51.179226
2022-09-16T08:07:10.813Z,51.179245
2022-09-16T08:08:10.717Z,51.179245
2022-09-16T08:09:37.239Z,51.179253
2022-09-16T08:10:12.950Z,51.179260
2022-09-16T08:11:10.663Z,51.179192
2022-09-16T08:12:10.611Z,51.179188
2022-09-16T08:13:10.671Z,51.179253
2022-09-16T08:14:10.660Z,51.179245
2022-09-16T08:15:10.757Z,51.179276
2022-09-16T08:16:10.635Z,51.179230
2022-09-16T08:17:10.691Z,51.179234
2022-09-16T08:18:10.695Z,51.179256
2022-09-16T08:19:10.645Z,51.179276
2022-09-16T08:20:10.653Z,51.179287
2022-09-16T08:21:10.610Z,51.179272
2022-09-16T08:22:10.518Z,51.179256
2022-09-16T08:23:10.534Z,51.179249
2022-09-16T08:24:10.494Z,51.179211
2022-09-16T08:25:10.645Z,51.179253
2022-09-16T08:26:10.559Z,51.179249
2022-09-16T08:27:10.536Z,51.179222
2022-09-16T08:28:10.574Z,51.179222
2022-09-16T08:29:10.892Z,51.179218
2022-09-16T08:30:10.465Z,51.179230
2022-09-16T08:31:10.465Z,51.179245
2022-09-16T08:32:10.591Z,51.179268
2022-09-16T08:33:10.512Z,51.179279
2022-09-16T08:34:10.382Z,51.179283
2022-09-16T08:35:11.492Z,51.179260
2022-09-16T08:36:10.461Z,51.179256
2022-09-16T08:37:10.520Z,51.179256
2022-09-16T08:38:10.386Z,51.179264
2022-09-16T08:39:10.389Z,51.179272
2022-09-16T08:40:10.518Z,51.179276
2022-09-16T08:41:10.308Z,51.179256
2022-09-16T08:42:10.405Z,51.179245
2022-09-16T08:43:10.600Z,51.179256
2022-09-16T08:44:10.288Z,51.179268
2022-09-16T08:45:10.463Z,51.179298
2022-09-16T08:46:10.428Z,51.179295
2022-09-16T08:47:10.364Z,51.179276
2022-09-16T08:48:10.385Z,51.179214
2022-09-16T08:49:10.408Z,51.179211
2022-09-16T08:50:10.301Z,51.179237
2022-09-16T08:51:10.254Z,51.179226
2022-09-16T08:52:10.298Z,51.179214
2022-09-16T08:53:10.284Z,51.179272
2022-09-16T08:54:10.256Z,51.179268
2022-09-16T08:55:10.268Z,51.179249
2022-09-16T08:56:10.197Z,51.179199
2022-09-16T08:57:10.225Z,51.179142
2022-09-16T08:58:10.238Z,51.179161
2022-09-16T08:59:10.274Z,51.179173
2022-09-16T09:00:10.206Z,51.179192
2022-09-16T09:01:10.504Z,51.179268
2022-09-16T09:02:10.694Z,51.179222
2022-09-16T09:03:10.191Z,51.179131
2022-09-16T09:04:10.175Z,51.179161
2022-09-16T09:05:10.186Z,51.179188
2022-09-16T09:06:10.182Z,51.179176
2022-09-16T09:07:10.164Z,51.179222
2022-09-16T09:08:10.066Z,51.179214
2022-09-16T09:09:10.101Z,51.179245
2022-09-16T09:10:11.000Z,51.179192
2022-09-16T09:11:11.104Z,51.179138
2022-09-16T09:12:10.681Z,51.179256
2022-09-16T09:13:11.071Z,51.179272
2022-09-16T09:14:10.108Z,51.179276
2022-09-16T09:15:10.034Z,51.179295
2022-09-16T09:16:10.081Z,51.179298
2022-09-16T09:17:09.995Z,51.179283
2022-09-16T09:18:13.905Z,51.179256
2022-09-16T09:19:12.107Z,51.179268
2022-09-16T09:20:09.989Z,51.179264
2022-09-16T09:21:10.018Z,51.179169
2022-09-16T09:22:09.889Z,51.179169
2022-09-16T09:23:09.905Z,51.179199
2022-09-16T09:24:09.997Z,51.179184
2022-09-16T09:25:09.967Z,51.179226
2022-09-16T09:26:09.847Z,51.179272
2022-09-16T09:27:09.968Z,51.179287
2022-09-16T09:28:09.830Z,51.179287
2022-09-16T09:29:09.906Z,51.179264
2022-09-16T09:30:09.899Z,51.179283
2022-09-16T09:31:11.029Z,51.179264
2022-09-16T09:32:11.166Z,51.179207
2022-09-16T09:33:27.740Z,51.179226
2022-09-16T09:34:11.899Z,51.179260
2022-09-16T09:35:09.807Z,51.179260
2022-09-16T09:36:09.740Z,51.179241
2022-09-16T09:37:09.807Z,51.179211
2022-09-16T09:38:09.850Z,51.179249
2022-09-16T09:39:09.806Z,51.179234
2022-09-16T09:40:09.741Z,51.179100
2022-09-16T09:41:09.871Z,51.178951
2022-09-16T09:42:10.051Z,51.179134
2022-09-16T09:43:09.808Z,51.179184
2022-09-16T09:44:09.698Z,51.179245
2022-09-16T09:45:10.050Z,51.179218
2022-09-16T09:46:09.659Z,51.179272
2022-09-16T09:47:09.621Z,51.179230
2022-09-16T09:48:09.789Z,51.179169
2022-09-16T09:49:09.670Z,51.179203
2022-09-16T09:50:09.563Z,51.179241
2022-09-16T09:51:09.586Z,51.179310
2022-09-16T09:52:09.642Z,51.179379
2022-09-16T09:53:09.656Z,51.179188
2022-09-16T09:54:09.857Z,51.179226
2022-09-16T09:55:12.098Z,51.179310
2022-09-16T09:56:10.546Z,51.179287
2022-09-16T09:57:09.580Z,51.179268
2022-09-16T09:58:09.522Z,51.179279
2022-09-16T09:59:09.602Z,51.179241
2022-09-16T10:00:09.479Z,51.179188
2022-09-16T10:01:09.608Z,51.179138
2022-09-16T10:02:09.565Z,51.179241
2022-09-16T10:03:09.465Z,51.179340
2022-09-16T10:04:09.532Z,51.179218
2022-09-16T10:05:09.591Z,51.179237
2022-09-16T10:06:09.532Z,51.179249
2022-09-16T10:07:09.490Z,51.179142
2022-09-16T10:08:11.844Z,51.179249
2022-09-16T10:09:10.464Z,51.179298
2022-09-16T10:10:09.497Z,51.179214
2022-09-16T10:11:09.363Z,51.179352
2022-09-16T10:12:09.437Z,51.179291
2022-09-16T10:13:09.440Z,51.179279
2022-09-16T10:14:09.424Z,51.179237
2022-09-16T10:15:09.399Z,51.179272
2022-09-16T10:16:09.709Z,51.179287
2022-09-16T10:17:09.386Z,51.179337
2022-09-16T10:18:09.415Z,51.179173
2022-09-16T10:19:09.278Z,51.179115
2022-09-16T10:20:09.363Z,51.179161
2022-09-16T10:21:09.954Z,51.179188
2022-09-16T10:22:09.317Z,51.179199
2022-09-16T10:23:09.282Z,51.179134
2022-09-16T10:24:09.225Z,51.179142
2022-09-16T10:25:09.309Z,51.179119
2022-09-16T10:26:09.160Z,51.179127
2022-09-16T10:27:09.256Z,51.179119
2022-09-16T10:28:09.194Z,51.179142
2022-09-16T10:29:09.249Z,51.179203
2022-09-16T10:30:09.337Z,51.179207
2022-09-16T10:31:09.292Z,51.179211
2022-09-16T10:32:09.449Z,51.179207
2022-09-16T10:33:09.141Z,51.179222
2022-09-16T10:34:09.100Z,51.179256
2022-09-16T10:35:09.110Z,51.179256
2022-09-16T10:36:09.213Z,51.179165
2022-09-16T10:37:09.233Z,51.179203
2022-09-16T10:38:09.165Z,51.179214
2022-09-16T10:39:09.072Z,51.179276
2022-09-16T10:40:09.213Z,51.179302
2022-09-16T10:41:09.027Z,51.179306
2022-09-16T10:42:09.153Z,51.179321
2022-09-16T10:43:09.079Z,51.179356
2022-09-16T10:44:09.029Z,51.179329
2022-09-16T10:45:09.117Z,51.179306
2022-09-16T10:46:09.132Z,51.179310
2022-09-16T10:47:09.057Z,51.179279
2022-09-16T10:48:09.105Z,51.179260
2022-09-16T10:49:09.062Z,51.179283
2022-09-16T10:50:09.017Z,51.179283
2022-09-16T10:51:09.040Z,51.179272
2022-09-16T10:52:08.925Z,51.179260
2022-09-16T10:53:08.996Z,51.179256
2022-09-16T10:54:09.066Z,51.179264
2022-09-16T10:55:09.027Z,51.179276
2022-09-16T10:56:08.938Z,51.179276
2022-09-16T10:57:08.904Z,51.179264
2022-09-16T10:58:08.952Z,51.179241
2022-09-16T10:59:08.999Z,51.179245
2022-09-16T11:00:08.875Z,51.179253
2022-09-16T11:01:09.030Z,51.179222
2022-09-16T11:02:09.201Z,51.179226
2022-09-16T11:03:08.904Z,51.179222
2022-09-16T11:04:08.807Z,51.179283
2022-09-16T11:05:08.962Z,51.179268
2022-09-16T11:06:08.801Z,51.179272
2022-09-16T11:07:08.846Z,51.179276
2022-09-16T11:08:08.842Z,51.179245
2022-09-16T11:09:08.880Z,51.179226
2022-09-16T11:10:08.831Z,51.179226
2022-09-16T11:11:11.810Z,51.179234
2022-09-16T11:12:11.029Z,51.179222
2022-09-16T11:13:08.784Z,51.179237
2022-09-16T11:14:08.787Z,51.179237
2022-09-16T11:15:08.792Z,51.179226
2022-09-16T11:16:08.874Z,51.179214
2022-09-16T11:17:08.768Z,51.179222
2022-09-16T11:18:08.722Z,51.179237
2022-09-16T11:19:08.716Z,51.179245
2022-09-16T11:20:08.647Z,51.179245
2022-09-16T11:21:08.698Z,51.179253
2022-09-16T11:22:08.753Z,51.179260
2022-09-16T11:23:08.703Z,51.179295
2022-09-16T11:24:08.712Z,51.179306
2022-09-16T11:25:08.741Z,51.179291
2022-09-16T11:26:08.654Z,51.179264
2022-09-16T11:27:08.668Z,51.179245